sensor_id;sensor_type;location;lat;lon;timestamp;P1;durP1;ratioP1;P2;durP2;ratioP2
2618;SDS011;1319;52.346;13.096;2023-09-19T00:00:59;7.37;;;2.93;;
2618;SDS011;1319;52.346;13.096;2023-09-19T00:03:24;5.00;;;2.77;;
2618;SDS011;1319;52.346;13.096;2023-09-19T00:05:53;3.47;;;2.70;;
2618;SDS011;1319;52.346;13.096;2023-09-19T00:08:18;5.23;;;2.50;;
2618;SDS011;1319;52.346;13.096;2023-09-19T00:10:49;5.77;;;3.00;;
2618;SDS011;1319;52.346;13.096;2023-09-19T00:13:14;6.60;;;2.90;;
2618;SDS011;1319;52.346;13.096;2023-09-19T00:15:43;4.90;;;2.50;;
2618;SDS011;1319;52.346;13.096;2023-09-19T00:18:13;4.03;;;2.50;;
2618;SDS011;1319;52.346;13.096;2023-09-19T00:20:40;4.43;;;2.90;;
2618;SDS011;1319;52.346;13.096;2023-09-19T00:23:07;4.87;;;2.77;;
2618;SDS011;1319;52.346;13.096;2023-09-19T00:25:33;2.77;;;2.50;;
2618;SDS011;1319;52.346;13.096;2023-09-19T00:28:00;5.90;;;2.50;;
2618;SDS011;1319;52.346;13.096;2023-09-19T00:30:26;5.37;;;2.53;;
2618;SDS011;1319;52.346;13.096;2023-09-19T00:32:51;5.17;;;2.50;;
2618;SDS011;1319;52.346;13.096;2023-09-19T00:35:18;3.40;;;2.30;;
2618;SDS011;1319;52.346;13.096;2023-09-19T00:37:44;6.40;;;2.50;;
2618;SDS011;1319;52.346;13.096;2023-09-19T00:40:09;6.77;;;2.43;;
2618;SDS011;1319;52.346;13.096;2023-09-19T00:42:40;6.00;;;2.70;;
2618;SDS011;1319;52.346;13.096;2023-09-19T00:45:06;5.10;;;2.23;;
2618;SDS011;1319;52.346;13.096;2023-09-19T00:47:32;7.23;;;2.57;;
2618;SDS011;1319;52.346;13.096;2023-09-19T00:49:57;2.40;;;2.20;;
2618;SDS011;1319;52.346;13.096;2023-09-19T00:52:22;5.20;;;2.37;;
2618;SDS011;1319;52.346;13.096;2023-09-19T00:54:48;4.80;;;2.50;;
2618;SDS011;1319;52.346;13.096;2023-09-19T00:57:14;4.27;;;2.57;;
2618;SDS011;1319;52.346;13.096;2023-09-19T00:59:40;4.83;;;2.50;;
2618;SDS011;1319;52.346;13.096;2023-09-19T01:02:05;3.20;;;2.57;;
2618;SDS011;1319;52.346;13.096;2023-09-19T01:04:31;8.13;;;2.60;;
2618;SDS011;1319;52.346;13.096;2023-09-19T01:06:56;5.03;;;2.40;;
2618;SDS011;1319;52.346;13.096;2023-09-19T01:09:23;6.37;;;2.73;;
2618;SDS011;1319;52.346;13.096;2023-09-19T01:11:48;2.47;;;2.27;;
2618;SDS011;1319;52.346;13.096;2023-09-19T01:16:56;5.50;;;2.30;;
2618;SDS011;1319;52.346;13.096;2023-09-19T01:22:02;5.67;;;2.20;;
2618;SDS011;1319;52.346;13.096;2023-09-19T01:24:34;4.33;;;2.23;;
2618;SDS011;1319;52.346;13.096;2023-09-19T01:27:17;4.67;;;2.30;;
2618;SDS011;1319;52.346;13.096;2023-09-19T01:29:46;5.00;;;2.40;;
2618;SDS011;1319;52.346;13.096;2023-09-19T01:32:19;9.37;;;2.67;;
2618;SDS011;1319;52.346;13.096;2023-09-19T01:34:50;3.30;;;2.20;;
2618;SDS011;1319;52.346;13.096;2023-09-19T01:37:16;2.60;;;2.03;;
2618;SDS011;1319;52.346;13.096;2023-09-19T01:39:48;5.27;;;2.30;;
2618;SDS011;1319;52.346;13.096;2023-09-19T01:44:59;4.77;;;2.10;;
2618;SDS011;1319;52.346;13.096;2023-09-19T01:47:32;5.07;;;2.40;;
2618;SDS011;1319;52.346;13.096;2023-09-19T01:52:31;4.00;;;2.13;;
2618;SDS011;1319;52.346;13.096;2023-09-19T01:55:02;5.77;;;2.30;;
2618;SDS011;1319;52.346;13.096;2023-09-19T02:00:17;4.30;;;2.40;;
2618;SDS011;1319;52.346;13.096;2023-09-19T02:02:44;5.43;;;2.33;;
2618;SDS011;1319;52.346;13.096;2023-09-19T02:05:10;3.90;;;2.50;;
2618;SDS011;1319;52.346;13.096;2023-09-19T02:07:36;3.07;;;2.20;;
2618;SDS011;1319;52.346;13.096;2023-09-19T02:10:04;7.43;;;2.30;;
2618;SDS011;1319;52.346;13.096;2023-09-19T02:12:30;3.50;;;2.37;;
2618;SDS011;1319;52.346;13.096;2023-09-19T02:14:57;5.43;;;2.80;;
2618;SDS011;1319;52.346;13.096;2023-09-19T02:17:24;6.30;;;2.30;;
2618;SDS011;1319;52.346;13.096;2023-09-19T02:19:51;6.43;;;2.43;;
2618;SDS011;1319;52.346;13.096;2023-09-19T02:22:17;8.67;;;2.60;;
2618;SDS011;1319;52.346;13.096;2023-09-19T02:24:42;3.83;;;2.30;;
2618;SDS011;1319;52.346;13.096;2023-09-19T02:27:08;2.43;;;2.30;;
2618;SDS011;1319;52.346;13.096;2023-09-19T02:29:33;2.93;;;2.40;;
2618;SDS011;1319;52.346;13.096;2023-09-19T02:31:59;6.07;;;2.50;;
2618;SDS011;1319;52.346;13.096;2023-09-19T02:34:26;5.70;;;2.67;;
2618;SDS011;1319;52.346;13.096;2023-09-19T02:36:52;3.07;;;2.40;;
2618;SDS011;1319;52.346;13.096;2023-09-19T02:39:19;6.17;;;2.60;;
2618;SDS011;1319;52.346;13.096;2023-09-19T02:41:45;3.47;;;2.30;;
2618;SDS011;1319;52.346;13.096;2023-09-19T02:44:11;2.83;;;2.43;;
2618;SDS011;1319;52.346;13.096;2023-09-19T02:46:36;3.23;;;2.20;;
2618;SDS011;1319;52.346;13.096;2023-09-19T02:49:02;5.70;;;2.60;;
2618;SDS011;1319;52.346;13.096;2023-09-19T02:51:30;4.17;;;2.77;;
2618;SDS011;1319;52.346;13.096;2023-09-19T02:53:55;3.50;;;2.50;;
2618;SDS011;1319;52.346;13.096;2023-09-19T02:56:21;4.17;;;2.40;;
2618;SDS011;1319;52.346;13.096;2023-09-19T02:58:47;5.30;;;2.50;;
2618;SDS011;1319;52.346;13.096;2023-09-19T03:01:13;3.20;;;2.47;;
2618;SDS011;1319;52.346;13.096;2023-09-19T03:03:39;5.77;;;2.90;;
2618;SDS011;1319;52.346;13.096;2023-09-19T03:06:07;4.57;;;2.37;;
2618;SDS011;1319;52.346;13.096;2023-09-19T03:08:34;3.80;;;2.50;;
2618;SDS011;1319;52.346;13.096;2023-09-19T03:11:01;2.70;;;2.30;;
2618;SDS011;1319;52.346;13.096;2023-09-19T03:13:27;6.50;;;2.53;;
2618;SDS011;1319;52.346;13.096;2023-09-19T03:15:54;2.90;;;2.63;;
2618;SDS011;1319;52.346;13.096;2023-09-19T03:18:21;3.00;;;2.70;;
2618;SDS011;1319;52.346;13.096;2023-09-19T03:20:55;4.23;;;2.70;;
2618;SDS011;1319;52.346;13.096;2023-09-19T03:23:21;6.20;;;2.37;;
2618;SDS011;1319;52.346;13.096;2023-09-19T03:25:46;2.53;;;2.20;;
2618;SDS011;1319;52.346;13.096;2023-09-19T03:28:12;7.70;;;2.50;;
2618;SDS011;1319;52.346;13.096;2023-09-19T03:30:38;5.03;;;2.40;;
2618;SDS011;1319;52.346;13.096;2023-09-19T03:33:03;2.70;;;2.50;;
2618;SDS011;1319;52.346;13.096;2023-09-19T03:35:29;3.60;;;2.53;;
2618;SDS011;1319;52.346;13.096;2023-09-19T03:37:55;2.60;;;2.40;;
2618;SDS011;1319;52.346;13.096;2023-09-19T03:40:20;4.50;;;2.40;;
2618;SDS011;1319;52.346;13.096;2023-09-19T03:42:46;4.30;;;2.80;;
2618;SDS011;1319;52.346;13.096;2023-09-19T03:45:13;3.13;;;2.57;;
2618;SDS011;1319;52.346;13.096;2023-09-19T03:47:39;6.93;;;2.50;;
2618;SDS011;1319;52.346;13.096;2023-09-19T03:50:05;5.13;;;2.47;;
2618;SDS011;1319;52.346;13.096;2023-09-19T03:52:32;3.17;;;2.27;;
2618;SDS011;1319;52.346;13.096;2023-09-19T03:54:57;4.13;;;2.33;;
2618;SDS011;1319;52.346;13.096;2023-09-19T03:57:22;3.87;;;2.43;;
2618;SDS011;1319;52.346;13.096;2023-09-19T03:59:48;2.97;;;1.97;;
2618;SDS011;1319;52.346;13.096;2023-09-19T04:02:13;2.27;;;2.10;;
2618;SDS011;1319;52.346;13.096;2023-09-19T04:04:47;3.63;;;2.27;;
2618;SDS011;1319;52.346;13.096;2023-09-19T04:07:12;5.40;;;2.13;;
2618;SDS011;1319;52.346;13.096;2023-09-19T04:09:38;2.53;;;2.07;;
2618;SDS011;1319;52.346;13.096;2023-09-19T04:12:03;3.93;;;1.93;;
2618;SDS011;1319;52.346;13.096;2023-09-19T04:14:28;4.90;;;1.87;;
2618;SDS011;1319;52.346;13.096;2023-09-19T04:16:54;2.23;;;1.80;;
2618;SDS011;1319;52.346;13.096;2023-09-19T04:19:19;3.40;;;2.30;;
2618;SDS011;1319;52.346;13.096;2023-09-19T04:21:47;3.03;;;1.90;;
2618;SDS011;1319;52.346;13.096;2023-09-19T04:24:12;5.30;;;1.73;;
2618;SDS011;1319;52.346;13.096;2023-09-19T04:26:38;6.60;;;2.20;;
2618;SDS011;1319;52.346;13.096;2023-09-19T04:29:03;6.97;;;1.90;;
2618;SDS011;1319;52.346;13.096;2023-09-19T04:31:29;2.07;;;1.90;;
2618;SDS011;1319;52.346;13.096;2023-09-19T04:33:55;1.97;;;1.83;;
2618;SDS011;1319;52.346;13.096;2023-09-19T04:36:20;3.83;;;1.60;;
2618;SDS011;1319;52.346;13.096;2023-09-19T04:38:47;4.70;;;1.87;;
2618;SDS011;1319;52.346;13.096;2023-09-19T04:41:13;1.60;;;1.50;;
2618;SDS011;1319;52.346;13.096;2023-09-19T04:43:40;2.77;;;1.77;;
2618;SDS011;1319;52.346;13.096;2023-09-19T04:46:05;2.20;;;1.90;;
2618;SDS011;1319;52.346;13.096;2023-09-19T04:48:31;3.37;;;1.80;;
2618;SDS011;1319;52.346;13.096;2023-09-19T04:50:56;7.03;;;1.80;;
2618;SDS011;1319;52.346;13.096;2023-09-19T04:53:22;2.77;;;1.80;;
2618;SDS011;1319;52.346;13.096;2023-09-19T04:55:51;2.97;;;1.97;;
2618;SDS011;1319;52.346;13.096;2023-09-19T04:58:17;2.60;;;1.60;;
2618;SDS011;1319;52.346;13.096;2023-09-19T05:00:44;2.50;;;2.00;;
2618;SDS011;1319;52.346;13.096;2023-09-19T05:03:09;4.00;;;2.00;;
2618;SDS011;1319;52.346;13.096;2023-09-19T05:05:34;1.57;;;1.47;;
2618;SDS011;1319;52.346;13.096;2023-09-19T05:08:00;4.47;;;1.50;;
2618;SDS011;1319;52.346;13.096;2023-09-19T05:10:25;3.57;;;1.70;;
2618;SDS011;1319;52.346;13.096;2023-09-19T05:12:53;2.83;;;1.80;;
2618;SDS011;1319;52.346;13.096;2023-09-19T05:15:19;5.90;;;2.00;;
2618;SDS011;1319;52.346;13.096;2023-09-19T05:17:50;3.83;;;2.00;;
2618;SDS011;1319;52.346;13.096;2023-09-19T05:20:16;3.60;;;2.00;;
2618;SDS011;1319;52.346;13.096;2023-09-19T05:22:43;2.87;;;1.90;;
2618;SDS011;1319;52.346;13.096;2023-09-19T05:25:09;3.33;;;1.83;;
2618;SDS011;1319;52.346;13.096;2023-09-19T05:27:34;4.07;;;1.90;;
2618;SDS011;1319;52.346;13.096;2023-09-19T05:30:00;2.00;;;1.90;;
2618;SDS011;1319;52.346;13.096;2023-09-19T05:32:25;6.13;;;1.93;;
2618;SDS011;1319;52.346;13.096;2023-09-19T05:34:50;1.47;;;1.47;;
2618;SDS011;1319;52.346;13.096;2023-09-19T05:37:18;2.63;;;1.83;;
2618;SDS011;1319;52.346;13.096;2023-09-19T05:39:44;1.80;;;1.70;;
2618;SDS011;1319;52.346;13.096;2023-09-19T05:42:09;2.10;;;2.00;;
2618;SDS011;1319;52.346;13.096;2023-09-19T05:44:34;2.20;;;1.70;;
2618;SDS011;1319;52.346;13.096;2023-09-19T05:47:00;2.53;;;2.00;;
2618;SDS011;1319;52.346;13.096;2023-09-19T05:49:26;5.13;;;2.00;;
2618;SDS011;1319;52.346;13.096;2023-09-19T05:51:52;4.33;;;2.33;;
2618;SDS011;1319;52.346;13.096;2023-09-19T05:54:20;2.67;;;1.73;;
2618;SDS011;1319;52.346;13.096;2023-09-19T05:56:45;3.63;;;1.83;;
2618;SDS011;1319;52.346;13.096;2023-09-19T05:59:12;4.27;;;1.90;;
2618;SDS011;1319;52.346;13.096;2023-09-19T06:01:38;4.13;;;2.07;;
2618;SDS011;1319;52.346;13.096;2023-09-19T06:04:04;5.50;;;2.20;;
2618;SDS011;1319;52.346;13.096;2023-09-19T06:06:29;4.83;;;2.00;;
2618;SDS011;1319;52.346;13.096;2023-09-19T06:08:55;5.07;;;2.13;;
2618;SDS011;1319;52.346;13.096;2023-09-19T06:11:20;3.10;;;2.00;;
2618;SDS011;1319;52.346;13.096;2023-09-19T06:13:46;5.53;;;2.27;;
2618;SDS011;1319;52.346;13.096;2023-09-19T06:16:16;3.83;;;2.20;;
2618;SDS011;1319;52.346;13.096;2023-09-19T06:18:44;2.73;;;2.10;;
2618;SDS011;1319;52.346;13.096;2023-09-19T06:21:10;3.67;;;2.10;;
2618;SDS011;1319;52.346;13.096;2023-09-19T06:23:36;2.80;;;2.20;;
2618;SDS011;1319;52.346;13.096;2023-09-19T06:26:01;3.83;;;2.33;;
2618;SDS011;1319;52.346;13.096;2023-09-19T06:28:26;3.27;;;2.20;;
2618;SDS011;1319;52.346;13.096;2023-09-19T06:30:53;2.20;;;2.10;;
2618;SDS011;1319;52.346;13.096;2023-09-19T06:33:19;4.20;;;2.33;;
2618;SDS011;1319;52.346;13.096;2023-09-19T06:35:46;4.57;;;2.33;;
2618;SDS011;1319;52.346;13.096;2023-09-19T06:38:12;5.40;;;2.20;;
2618;SDS011;1319;52.346;13.096;2023-09-19T06:40:38;5.83;;;2.20;;
2618;SDS011;1319;52.346;13.096;2023-09-19T06:43:03;4.93;;;2.20;;
2618;SDS011;1319;52.346;13.096;2023-09-19T06:45:30;4.60;;;2.23;;
2618;SDS011;1319;52.346;13.096;2023-09-19T06:47:56;6.20;;;2.30;;
2618;SDS011;1319;52.346;13.096;2023-09-19T06:50:23;6.77;;;2.60;;
2618;SDS011;1319;52.346;13.096;2023-09-19T06:52:52;2.17;;;2.00;;
2618;SDS011;1319;52.346;13.096;2023-09-19T06:55:19;4.30;;;2.20;;
2618;SDS011;1319;52.346;13.096;2023-09-19T06:57:45;3.80;;;2.40;;
2618;SDS011;1319;52.346;13.096;2023-09-19T07:00:10;5.00;;;2.30;;
2618;SDS011;1319;52.346;13.096;2023-09-19T07:03:05;6.00;;;3.37;;
2618;SDS011;1319;52.346;13.096;2023-09-19T07:05:34;4.30;;;2.63;;
2618;SDS011;1319;52.346;13.096;2023-09-19T07:08:02;4.20;;;2.50;;
2618;SDS011;1319;52.346;13.096;2023-09-19T07:10:28;3.73;;;2.40;;
2618;SDS011;1319;52.346;13.096;2023-09-19T07:12:57;2.20;;;2.00;;
2618;SDS011;1319;52.346;13.096;2023-09-19T07:15:23;3.37;;;2.00;;
2618;SDS011;1319;52.346;13.096;2023-09-19T07:17:49;3.33;;;2.00;;
2618;SDS011;1319;52.346;13.096;2023-09-19T07:20:15;3.13;;;2.03;;
2618;SDS011;1319;52.346;13.096;2023-09-19T07:22:41;2.00;;;1.90;;
2618;SDS011;1319;52.346;13.096;2023-09-19T07:25:06;4.97;;;2.30;;
2618;SDS011;1319;52.346;13.096;2023-09-19T07:27:32;5.23;;;2.10;;
2618;SDS011;1319;52.346;13.096;2023-09-19T07:29:57;5.13;;;2.40;;
2618;SDS011;1319;52.346;13.096;2023-09-19T07:32:23;4.35;;;2.17;;
2618;SDS011;1319;52.346;13.096;2023-09-19T07:34:49;3.87;;;2.10;;
2618;SDS011;1319;52.346;13.096;2023-09-19T07:37:14;9.05;;;2.38;;
2618;SDS011;1319;52.346;13.096;2023-09-19T07:39:40;2.78;;;1.95;;
2618;SDS011;1319;52.346;13.096;2023-09-19T07:42:06;4.53;;;2.30;;
2618;SDS011;1319;52.346;13.096;2023-09-19T07:44:32;7.57;;;2.30;;
2618;SDS011;1319;52.346;13.096;2023-09-19T07:46:57;4.07;;;2.20;;
2618;SDS011;1319;52.346;13.096;2023-09-19T07:49:23;4.13;;;2.45;;
2618;SDS011;1319;52.346;13.096;2023-09-19T07:51:48;5.57;;;2.17;;
2618;SDS011;1319;52.346;13.096;2023-09-19T07:54:13;4.40;;;2.40;;
2618;SDS011;1319;52.346;13.096;2023-09-19T07:56:39;5.53;;;2.60;;
2618;SDS011;1319;52.346;13.096;2023-09-19T07:59:05;5.50;;;2.40;;
2618;SDS011;1319;52.346;13.096;2023-09-19T08:01:30;6.13;;;2.60;;
2618;SDS011;1319;52.346;13.096;2023-09-19T08:03:56;7.50;;;2.83;;
2618;SDS011;1319;52.346;13.096;2023-09-19T08:06:21;4.10;;;2.10;;
2618;SDS011;1319;52.346;13.096;2023-09-19T08:08:46;2.67;;;2.20;;
2618;SDS011;1319;52.346;13.096;2023-09-19T08:11:12;7.20;;;2.40;;
2618;SDS011;1319;52.346;13.096;2023-09-19T08:13:40;9.68;;;3.03;;
2618;SDS011;1319;52.346;13.096;2023-09-19T08:16:10;6.13;;;2.70;;
2618;SDS011;1319;52.346;13.096;2023-09-19T08:18:35;4.70;;;2.50;;
2618;SDS011;1319;52.346;13.096;2023-09-19T08:21:01;7.17;;;2.37;;
2618;SDS011;1319;52.346;13.096;2023-09-19T08:23:26;5.83;;;2.73;;
2618;SDS011;1319;52.346;13.096;2023-09-19T08:25:55;6.73;;;2.50;;
2618;SDS011;1319;52.346;13.096;2023-09-19T08:28:21;7.03;;;2.63;;
2618;SDS011;1319;52.346;13.096;2023-09-19T08:30:49;5.97;;;2.47;;
2618;SDS011;1319;52.346;13.096;2023-09-19T08:33:14;5.90;;;2.70;;
2618;SDS011;1319;52.346;13.096;2023-09-19T08:35:42;7.67;;;2.77;;
2618;SDS011;1319;52.346;13.096;2023-09-19T08:38:09;4.85;;;2.42;;
2618;SDS011;1319;52.346;13.096;2023-09-19T08:40:37;3.97;;;2.80;;
2618;SDS011;1319;52.346;13.096;2023-09-19T08:43:04;7.20;;;2.70;;
2618;SDS011;1319;52.346;13.096;2023-09-19T08:45:29;8.67;;;2.70;;
2618;SDS011;1319;52.346;13.096;2023-09-19T08:50:33;5.50;;;2.63;;
2618;SDS011;1319;52.346;13.096;2023-09-19T08:53:01;6.63;;;2.60;;
2618;SDS011;1319;52.346;13.096;2023-09-19T08:55:27;8.15;;;2.70;;
2618;SDS011;1319;52.346;13.096;2023-09-19T08:57:55;4.85;;;2.38;;
2618;SDS011;1319;52.346;13.096;2023-09-19T09:00:23;5.10;;;2.40;;
2618;SDS011;1319;52.346;13.096;2023-09-19T09:02:52;4.25;;;2.38;;
2618;SDS011;1319;52.346;13.096;2023-09-19T09:05:19;9.00;;;2.90;;
2618;SDS011;1319;52.346;13.096;2023-09-19T09:07:47;11.52;;;2.78;;
2618;SDS011;1319;52.346;13.096;2023-09-19T09:10:14;3.53;;;2.30;;
2618;SDS011;1319;52.346;13.096;2023-09-19T09:12:39;7.60;;;2.38;;
2618;SDS011;1319;52.346;13.096;2023-09-19T09:15:06;7.72;;;2.28;;
2618;SDS011;1319;52.346;13.096;2023-09-19T09:17:31;6.18;;;2.83;;
2618;SDS011;1319;52.346;13.096;2023-09-19T09:19:56;7.93;;;1.92;;
2618;SDS011;1319;52.346;13.096;2023-09-19T09:22:22;3.10;;;2.03;;
2618;SDS011;1319;52.346;13.096;2023-09-19T09:24:51;3.78;;;2.55;;
2618;SDS011;1319;52.346;13.096;2023-09-19T09:27:18;8.75;;;2.25;;
2618;SDS011;1319;52.346;13.096;2023-09-19T09:29:44;4.43;;;2.45;;
2618;SDS011;1319;52.346;13.096;2023-09-19T09:34:53;3.80;;;2.45;;
2618;SDS011;1319;52.346;13.096;2023-09-19T09:37:18;6.32;;;2.08;;
2618;SDS011;1319;52.346;13.096;2023-09-19T09:39:54;4.20;;;2.00;;
2618;SDS011;1319;52.346;13.096;2023-09-19T09:42:34;3.72;;;1.98;;
2618;SDS011;1319;52.346;13.096;2023-09-19T09:45:22;4.35;;;2.30;;
2618;SDS011;1319;52.346;13.096;2023-09-19T09:48:08;6.43;;;2.40;;
2618;SDS011;1319;52.346;13.096;2023-09-19T09:50:46;3.22;;;2.15;;
2618;SDS011;1319;52.346;13.096;2023-09-19T09:53:22;8.50;;;2.72;;
2618;SDS011;1319;52.346;13.096;2023-09-19T09:56:23;7.97;;;2.25;;
2618;SDS011;1319;52.346;13.096;2023-09-19T10:01:13;12.40;;;2.72;;
2618;SDS011;1319;52.346;13.096;2023-09-19T10:03:41;5.70;;;2.50;;
2618;SDS011;1319;52.346;13.096;2023-09-19T10:06:09;7.68;;;2.75;;
2618;SDS011;1319;52.346;13.096;2023-09-19T10:08:57;7.43;;;2.65;;
2618;SDS011;1319;52.346;13.096;2023-09-19T10:11:27;4.70;;;2.50;;
2618;SDS011;1319;52.346;13.096;2023-09-19T10:13:55;8.13;;;2.63;;
2618;SDS011;1319;52.346;13.096;2023-09-19T10:16:20;6.30;;;2.47;;
2618;SDS011;1319;52.346;13.096;2023-09-19T10:18:47;10.10;;;3.08;;
2618;SDS011;1319;52.346;13.096;2023-09-19T10:21:17;4.57;;;2.40;;
2618;SDS011;1319;52.346;13.096;2023-09-19T10:23:47;6.53;;;2.67;;
2618;SDS011;1319;52.346;13.096;2023-09-19T10:26:15;5.70;;;2.92;;
2618;SDS011;1319;52.346;13.096;2023-09-19T10:28:42;5.13;;;2.53;;
2618;SDS011;1319;52.346;13.096;2023-09-19T10:31:07;5.63;;;2.53;;
2618;SDS011;1319;52.346;13.096;2023-09-19T10:33:35;7.22;;;2.50;;
2618;SDS011;1319;52.346;13.096;2023-09-19T10:36:02;6.68;;;2.10;;
2618;SDS011;1319;52.346;13.096;2023-09-19T10:38:29;5.28;;;2.50;;
2618;SDS011;1319;52.346;13.096;2023-09-19T10:40:56;6.70;;;2.20;;
2618;SDS011;1319;52.346;13.096;2023-09-19T10:43:25;5.55;;;2.40;;
2618;SDS011;1319;52.346;13.096;2023-09-19T10:45:51;5.03;;;2.30;;
2618;SDS011;1319;52.346;13.096;2023-09-19T10:48:20;6.93;;;2.30;;
2618;SDS011;1319;52.346;13.096;2023-09-19T10:51:04;3.78;;;2.22;;
2618;SDS011;1319;52.346;13.096;2023-09-19T10:53:32;4.10;;;2.17;;
2618;SDS011;1319;52.346;13.096;2023-09-19T10:56:05;5.30;;;2.15;;
2618;SDS011;1319;52.346;13.096;2023-09-19T10:58:40;9.15;;;2.40;;
2618;SDS011;1319;52.346;13.096;2023-09-19T11:01:07;6.97;;;2.33;;
2618;SDS011;1319;52.346;13.096;2023-09-19T11:03:34;6.97;;;2.25;;
2618;SDS011;1319;52.346;13.096;2023-09-19T11:06:02;6.10;;;2.20;;
2618;SDS011;1319;52.346;13.096;2023-09-19T11:11:55;4.18;;;1.92;;
2618;SDS011;1319;52.346;13.096;2023-09-19T11:22:18;4.15;;;2.10;;
2618;SDS011;1319;52.346;13.096;2023-09-19T11:24:44;6.57;;;2.17;;
2618;SDS011;1319;52.346;13.096;2023-09-19T11:27:11;3.50;;;1.92;;
2618;SDS011;1319;52.346;13.096;2023-09-19T11:29:39;10.40;;;2.50;;
2618;SDS011;1319;52.346;13.096;2023-09-19T11:32:05;9.10;;;1.83;;
2618;SDS011;1319;52.346;13.096;2023-09-19T11:39:40;1.80;;;1.70;;
2618;SDS011;1319;52.346;13.096;2023-09-19T11:44:52;4.38;;;1.90;;
2618;SDS011;1319;52.346;13.096;2023-09-19T11:47:21;4.03;;;2.17;;
2618;SDS011;1319;52.346;13.096;2023-09-19T11:49:47;5.10;;;1.85;;
2618;SDS011;1319;52.346;13.096;2023-09-19T11:52:21;7.25;;;2.10;;
2618;SDS011;1319;52.346;13.096;2023-09-19T11:54:47;5.45;;;1.65;;
2618;SDS011;1319;52.346;13.096;2023-09-19T11:57:22;6.82;;;1.90;;
2618;SDS011;1319;52.346;13.096;2023-09-19T11:59:47;3.80;;;1.60;;
2618;SDS011;1319;52.346;13.096;2023-09-19T12:02:13;5.75;;;1.90;;
2618;SDS011;1319;52.346;13.096;2023-09-19T12:04:44;4.25;;;2.25;;
2618;SDS011;1319;52.346;13.096;2023-09-19T12:07:11;3.90;;;1.83;;
2618;SDS011;1319;52.346;13.096;2023-09-19T12:09:40;4.07;;;1.80;;
2618;SDS011;1319;52.346;13.096;2023-09-19T12:12:09;5.47;;;2.10;;
2618;SDS011;1319;52.346;13.096;2023-09-19T12:14:34;5.10;;;2.25;;
2618;SDS011;1319;52.346;13.096;2023-09-19T12:17:00;3.95;;;1.77;;
2618;SDS011;1319;52.346;13.096;2023-09-19T12:19:26;4.43;;;2.00;;
2618;SDS011;1319;52.346;13.096;2023-09-19T12:21:54;4.53;;;1.63;;
2618;SDS011;1319;52.346;13.096;2023-09-19T12:24:19;1.83;;;1.67;;
2618;SDS011;1319;52.346;13.096;2023-09-19T12:26:45;5.15;;;1.88;;
2618;SDS011;1319;52.346;13.096;2023-09-19T12:29:18;4.90;;;2.15;;
2618;SDS011;1319;52.346;13.096;2023-09-19T12:31:50;3.50;;;1.98;;
2618;SDS011;1319;52.346;13.096;2023-09-19T12:34:19;3.58;;;1.98;;
2618;SDS011;1319;52.346;13.096;2023-09-19T12:36:45;3.95;;;1.50;;
2618;SDS011;1319;52.346;13.096;2023-09-19T12:39:10;3.10;;;1.40;;
2618;SDS011;1319;52.346;13.096;2023-09-19T12:41:37;6.78;;;1.70;;
2618;SDS011;1319;52.346;13.096;2023-09-19T12:44:02;3.15;;;1.40;;
2618;SDS011;1319;52.346;13.096;2023-09-19T12:46:33;3.50;;;1.60;;
2618;SDS011;1319;52.346;13.096;2023-09-19T12:49:14;8.57;;;1.60;;
2618;SDS011;1319;52.346;13.096;2023-09-19T12:51:42;2.70;;;1.73;;
2618;SDS011;1319;52.346;13.096;2023-09-19T12:54:08;2.90;;;1.40;;
2618;SDS011;1319;52.346;13.096;2023-09-19T12:56:42;3.55;;;1.52;;
2618;SDS011;1319;52.346;13.096;2023-09-19T12:59:12;2.72;;;1.50;;
2618;SDS011;1319;52.346;13.096;2023-09-19T13:01:41;3.03;;;1.38;;
2618;SDS011;1319;52.346;13.096;2023-09-19T13:04:16;3.50;;;1.60;;
2618;SDS011;1319;52.346;13.096;2023-09-19T13:06:48;2.85;;;1.63;;
2618;SDS011;1319;52.346;13.096;2023-09-19T13:09:14;3.78;;;1.77;;
2618;SDS011;1319;52.346;13.096;2023-09-19T13:11:40;4.07;;;1.85;;
2618;SDS011;1319;52.346;13.096;2023-09-19T13:14:20;3.60;;;1.73;;
2618;SDS011;1319;52.346;13.096;2023-09-19T13:16:55;3.60;;;2.00;;
2618;SDS011;1319;52.346;13.096;2023-09-19T13:19:40;4.13;;;1.70;;
2618;SDS011;1319;52.346;13.096;2023-09-19T13:24:50;5.45;;;1.70;;
2618;SDS011;1319;52.346;13.096;2023-09-19T13:27:16;3.28;;;1.90;;
2618;SDS011;1319;52.346;13.096;2023-09-19T13:29:41;3.85;;;1.80;;
2618;SDS011;1319;52.346;13.096;2023-09-19T13:32:06;4.20;;;1.95;;
2618;SDS011;1319;52.346;13.096;2023-09-19T13:34:32;3.90;;;1.50;;
2618;SDS011;1319;52.346;13.096;2023-09-19T13:36:57;4.20;;;1.98;;
2618;SDS011;1319;52.346;13.096;2023-09-19T13:39:24;8.07;;;1.80;;
2618;SDS011;1319;52.346;13.096;2023-09-19T13:41:49;3.45;;;1.60;;
2618;SDS011;1319;52.346;13.096;2023-09-19T13:44:15;3.47;;;1.85;;
2618;SDS011;1319;52.346;13.096;2023-09-19T13:46:42;6.55;;;2.05;;
2618;SDS011;1319;52.346;13.096;2023-09-19T13:49:10;2.42;;;1.55;;
2618;SDS011;1319;52.346;13.096;2023-09-19T13:51:36;3.10;;;1.65;;
2618;SDS011;1319;52.346;13.096;2023-09-19T13:54:01;2.17;;;1.70;;
2618;SDS011;1319;52.346;13.096;2023-09-19T13:56:27;6.82;;;1.90;;
2618;SDS011;1319;52.346;13.096;2023-09-19T13:58:56;3.10;;;1.73;;
2618;SDS011;1319;52.346;13.096;2023-09-19T14:01:21;6.55;;;1.80;;
2618;SDS011;1319;52.346;13.096;2023-09-19T14:03:46;7.47;;;1.98;;
2618;SDS011;1319;52.346;13.096;2023-09-19T14:06:14;2.85;;;1.77;;
2618;SDS011;1319;52.346;13.096;2023-09-19T14:08:40;5.68;;;2.00;;
2618;SDS011;1319;52.346;13.096;2023-09-19T14:11:06;3.72;;;1.90;;
2618;SDS011;1319;52.346;13.096;2023-09-19T14:13:31;4.20;;;1.90;;
2618;SDS011;1319;52.346;13.096;2023-09-19T14:15:57;4.65;;;1.90;;
2618;SDS011;1319;52.346;13.096;2023-09-19T14:18:22;5.75;;;1.90;;
2618;SDS011;1319;52.346;13.096;2023-09-19T14:20:47;2.47;;;1.92;;
2618;SDS011;1319;52.346;13.096;2023-09-19T14:23:12;1.98;;;1.67;;
2618;SDS011;1319;52.346;13.096;2023-09-19T14:25:38;3.38;;;1.80;;
2618;SDS011;1319;52.346;13.096;2023-09-19T14:28:04;3.38;;;1.80;;
2618;SDS011;1319;52.346;13.096;2023-09-19T14:30:30;5.28;;;1.92;;
2618;SDS011;1319;52.346;13.096;2023-09-19T14:32:56;2.25;;;1.95;;
2618;SDS011;1319;52.346;13.096;2023-09-19T14:35:22;4.05;;;1.60;;
2618;SDS011;1319;52.346;13.096;2023-09-19T14:37:48;5.15;;;1.95;;
2618;SDS011;1319;52.346;13.096;2023-09-19T14:40:13;4.28;;;1.67;;
2618;SDS011;1319;52.346;13.096;2023-09-19T14:42:40;4.97;;;2.00;;
2618;SDS011;1319;52.346;13.096;2023-09-19T14:45:06;5.38;;;1.90;;
2618;SDS011;1319;52.346;13.096;2023-09-19T14:47:32;6.13;;;2.20;;
2618;SDS011;1319;52.346;13.096;2023-09-19T14:49:59;5.35;;;1.90;;
2618;SDS011;1319;52.346;13.096;2023-09-19T14:52:24;4.55;;;1.90;;
2618;SDS011;1319;52.346;13.096;2023-09-19T14:54:52;3.40;;;1.95;;
2618;SDS011;1319;52.346;13.096;2023-09-19T14:57:18;9.02;;;2.20;;
2618;SDS011;1319;52.346;13.096;2023-09-19T14:59:43;8.38;;;2.20;;
2618;SDS011;1319;52.346;13.096;2023-09-19T15:02:08;9.43;;;2.10;;
2618;SDS011;1319;52.346;13.096;2023-09-19T15:04:33;7.07;;;2.00;;
2618;SDS011;1319;52.346;13.096;2023-09-19T15:06:59;4.03;;;1.92;;
2618;SDS011;1319;52.346;13.096;2023-09-19T15:09:24;10.48;;;1.90;;
2618;SDS011;1319;52.346;13.096;2023-09-19T15:11:51;8.50;;;1.92;;
2618;SDS011;1319;52.346;13.096;2023-09-19T15:14:17;4.95;;;1.75;;
2618;SDS011;1319;52.346;13.096;2023-09-19T15:16:43;6.97;;;2.40;;
2618;SDS011;1319;52.346;13.096;2023-09-19T15:19:08;3.92;;;2.00;;
2618;SDS011;1319;52.346;13.096;2023-09-19T15:21:35;6.05;;;2.17;;
2618;SDS011;1319;52.346;13.096;2023-09-19T15:24:00;3.75;;;1.90;;
2618;SDS011;1319;52.346;13.096;2023-09-19T15:26:26;5.20;;;2.00;;
2618;SDS011;1319;52.346;13.096;2023-09-19T15:28:51;5.95;;;1.88;;
2618;SDS011;1319;52.346;13.096;2023-09-19T15:31:19;4.25;;;2.00;;
2618;SDS011;1319;52.346;13.096;2023-09-19T15:33:44;3.83;;;2.00;;
2618;SDS011;1319;52.346;13.096;2023-09-19T15:36:11;7.50;;;2.53;;
2618;SDS011;1319;52.346;13.096;2023-09-19T15:38:56;9.43;;;2.30;;
2618;SDS011;1319;52.346;13.096;2023-09-19T15:41:29;4.90;;;2.10;;
2618;SDS011;1319;52.346;13.096;2023-09-19T15:43:55;11.05;;;2.25;;